Terminal Aerodrome Forecast
Issued by NWS Twin Cities, MN

Home | Current Version | Previous Version | Graphics & Text | Print | Product List | Glossary On
Versions: 1 2 3 4 5 6 7 8 9 10 11 12 13 14 15
000
FTUS43 KMPX 241120
TAFSTC
TAF
KSTC 241120Z 2412/2512 12007KT P6SM BKN050 OVC080
     FM241600 13012G17KT 6SM -SHRA OVC035
     FM242000 12014G21KT 6SM -SHRA OVC020
     FM250000 10013KT 6SM BR OVC012
     FM250700 08008KT 4SM BR OVC008=

USA.gov is the U.S. government's official web portal to all federal, state and local government web resources and services.